sensor_id;sensor_type;location;lat;lon;timestamp;temperature;humidity
13598;DHT22;38563;54.258;12.574;2023-08-01T00:01:16;16.60;99.90
13598;DHT22;38563;54.258;12.574;2023-08-01T00:03:43;16.60;99.90
13598;DHT22;38563;54.258;12.574;2023-08-01T00:06:11;16.60;99.90
13598;DHT22;38563;54.258;12.574;2023-08-01T00:08:37;16.60;99.90
13598;DHT22;38563;54.258;12.574;2023-08-01T00:11:04;16.50;99.90
13598;DHT22;38563;54.258;12.574;2023-08-01T00:13:31;16.60;99.90
13598;DHT22;38563;54.258;12.574;2023-08-01T00:15:58;16.50;99.90
13598;DHT22;38563;54.258;12.574;2023-08-01T00:18:24;16.60;99.90
13598;DHT22;38563;54.258;12.574;2023-08-01T00:20:52;16.60;99.90
13598;DHT22;38563;54.258;12.574;2023-08-01T00:23:20;16.50;99.90
13598;DHT22;38563;54.258;12.574;2023-08-01T00:25:47;16.60;99.90
13598;DHT22;38563;54.258;12.574;2023-08-01T00:28:16;16.50;99.90
13598;DHT22;38563;54.258;12.574;2023-08-01T00:30:43;16.60;99.90
13598;DHT22;38563;54.258;12.574;2023-08-01T00:33:10;16.60;99.90
13598;DHT22;38563;54.258;12.574;2023-08-01T00:35:37;16.60;99.90
13598;DHT22;38563;54.258;12.574;2023-08-01T00:38:04;16.60;99.90
13598;DHT22;38563;54.258;12.574;2023-08-01T00:40:32;16.60;99.90
13598;DHT22;38563;54.258;12.574;2023-08-01T00:42:59;16.50;99.90
13598;DHT22;38563;54.258;12.574;2023-08-01T00:45:26;16.50;99.90
13598;DHT22;38563;54.258;12.574;2023-08-01T00:47:54;16.50;99.90
13598;DHT22;38563;54.258;12.574;2023-08-01T00:50:22;16.50;99.90
13598;DHT22;38563;54.258;12.574;2023-08-01T00:52:50;16.50;99.90
13598;DHT22;38563;54.258;12.574;2023-08-01T00:55:18;16.50;99.90
13598;DHT22;38563;54.258;12.574;2023-08-01T00:57:47;16.50;99.90
13598;DHT22;38563;54.258;12.574;2023-08-01T01:00:14;16.50;99.90
13598;DHT22;38563;54.258;12.574;2023-08-01T01:02:41;16.40;99.90
13598;DHT22;38563;54.258;12.574;2023-08-01T01:05:08;16.50;99.90
13598;DHT22;38563;54.258;12.574;2023-08-01T01:08:00;16.40;99.90
13598;DHT22;38563;54.258;12.574;2023-08-01T01:10:28;16.40;99.90
13598;DHT22;38563;54.258;12.574;2023-08-01T01:12:56;16.40;99.90
13598;DHT22;38563;54.258;12.574;2023-08-01T01:15:23;16.30;99.90
13598;DHT22;38563;54.258;12.574;2023-08-01T01:17:50;16.30;99.90
13598;DHT22;38563;54.258;12.574;2023-08-01T01:20:22;16.30;99.90
13598;DHT22;38563;54.258;12.574;2023-08-01T01:22:51;16.30;99.90
13598;DHT22;38563;54.258;12.574;2023-08-01T01:25:19;16.30;99.90
13598;DHT22;38563;54.258;12.574;2023-08-01T01:27:47;16.30;99.90
13598;DHT22;38563;54.258;12.574;2023-08-01T01:30:14;16.20;99.90
13598;DHT22;38563;54.258;12.574;2023-08-01T01:32:41;16.20;99.90
13598;DHT22;38563;54.258;12.574;2023-08-01T01:35:09;16.20;99.90
13598;DHT22;38563;54.258;12.574;2023-08-01T01:37:36;16.20;99.90
13598;DHT22;38563;54.258;12.574;2023-08-01T01:40:05;16.20;99.90
13598;DHT22;38563;54.258;12.574;2023-08-01T01:42:32;16.20;99.90
13598;DHT22;38563;54.258;12.574;2023-08-01T01:44:58;16.30;99.90
13598;DHT22;38563;54.258;12.574;2023-08-01T01:47:25;16.30;99.90
13598;DHT22;38563;54.258;12.574;2023-08-01T01:49:52;16.30;99.90
13598;DHT22;38563;54.258;12.574;2023-08-01T01:52:19;16.30;99.90
13598;DHT22;38563;54.258;12.574;2023-08-01T01:54:45;16.30;99.90
13598;DHT22;38563;54.258;12.574;2023-08-01T01:57:13;16.30;99.90
13598;DHT22;38563;54.258;12.574;2023-08-01T01:59:40;16.20;99.90
13598;DHT22;38563;54.258;12.574;2023-08-01T02:02:07;16.20;99.90
13598;DHT22;38563;54.258;12.574;2023-08-01T02:04:34;16.20;99.90
13598;DHT22;38563;54.258;12.574;2023-08-01T02:07:00;16.20;99.90
13598;DHT22;38563;54.258;12.574;2023-08-01T02:09:28;16.20;99.90
13598;DHT22;38563;54.258;12.574;2023-08-01T02:11:55;16.10;99.90
13598;DHT22;38563;54.258;12.574;2023-08-01T02:14:23;16.10;99.90
13598;DHT22;38563;54.258;12.574;2023-08-01T02:16:50;16.10;99.90
13598;DHT22;38563;54.258;12.574;2023-08-01T02:19:17;16.10;99.90
13598;DHT22;38563;54.258;12.574;2023-08-01T02:21:44;16.10;99.90
13598;DHT22;38563;54.258;12.574;2023-08-01T02:24:10;16.00;99.90
13598;DHT22;38563;54.258;12.574;2023-08-01T02:26:37;16.10;99.90
13598;DHT22;38563;54.258;12.574;2023-08-01T02:29:04;16.00;99.90
13598;DHT22;38563;54.258;12.574;2023-08-01T02:31:32;16.00;99.90
13598;DHT22;38563;54.258;12.574;2023-08-01T02:33:59;16.00;99.90
13598;DHT22;38563;54.258;12.574;2023-08-01T02:36:26;16.00;99.90
13598;DHT22;38563;54.258;12.574;2023-08-01T02:38:52;16.00;99.90
13598;DHT22;38563;54.258;12.574;2023-08-01T02:41:19;15.90;99.90
13598;DHT22;38563;54.258;12.574;2023-08-01T02:43:45;15.90;99.90
13598;DHT22;38563;54.258;12.574;2023-08-01T02:46:11;15.90;99.90
13598;DHT22;38563;54.258;12.574;2023-08-01T02:48:39;15.90;99.90
13598;DHT22;38563;54.258;12.574;2023-08-01T02:51:06;15.80;99.90
13598;DHT22;38563;54.258;12.574;2023-08-01T02:53:34;15.80;99.90
13598;DHT22;38563;54.258;12.574;2023-08-01T02:56:01;15.80;99.90
13598;DHT22;38563;54.258;12.574;2023-08-01T02:58:28;15.80;99.90
13598;DHT22;38563;54.258;12.574;2023-08-01T03:00:55;15.80;99.90
13598;DHT22;38563;54.258;12.574;2023-08-01T03:03:22;15.70;99.90
13598;DHT22;38563;54.258;12.574;2023-08-01T03:05:51;15.70;99.90
13598;DHT22;38563;54.258;12.574;2023-08-01T03:08:19;15.70;99.90
13598;DHT22;38563;54.258;12.574;2023-08-01T03:10:46;15.70;99.90
13598;DHT22;38563;54.258;12.574;2023-08-01T03:13:12;15.70;99.90
13598;DHT22;38563;54.258;12.574;2023-08-01T03:15:39;15.70;99.90
13598;DHT22;38563;54.258;12.574;2023-08-01T03:18:06;15.70;99.90
13598;DHT22;38563;54.258;12.574;2023-08-01T03:20:33;15.70;99.90
13598;DHT22;38563;54.258;12.574;2023-08-01T03:23:01;15.80;99.90
13598;DHT22;38563;54.258;12.574;2023-08-01T03:25:28;15.80;99.90
13598;DHT22;38563;54.258;12.574;2023-08-01T03:27:56;15.80;99.90
13598;DHT22;38563;54.258;12.574;2023-08-01T03:30:23;15.80;99.90
13598;DHT22;38563;54.258;12.574;2023-08-01T03:32:51;15.70;99.90
13598;DHT22;38563;54.258;12.574;2023-08-01T03:35:18;15.80;99.90
13598;DHT22;38563;54.258;12.574;2023-08-01T03:37:44;15.80;99.90
13598;DHT22;38563;54.258;12.574;2023-08-01T03:40:12;15.80;99.90
13598;DHT22;38563;54.258;12.574;2023-08-01T03:42:39;15.80;99.90
13598;DHT22;38563;54.258;12.574;2023-08-01T03:45:08;15.80;99.90
13598;DHT22;38563;54.258;12.574;2023-08-01T03:47:35;15.80;99.90
13598;DHT22;38563;54.258;12.574;2023-08-01T03:50:02;15.80;99.90
13598;DHT22;38563;54.258;12.574;2023-08-01T03:52:29;15.80;99.90
13598;DHT22;38563;54.258;12.574;2023-08-01T03:54:56;15.80;99.90
13598;DHT22;38563;54.258;12.574;2023-08-01T03:57:24;15.80;99.90
13598;DHT22;38563;54.258;12.574;2023-08-01T03:59:51;15.90;99.90
13598;DHT22;38563;54.258;12.574;2023-08-01T04:02:17;15.90;99.90
13598;DHT22;38563;54.258;12.574;2023-08-01T04:04:45;15.90;99.90
13598;DHT22;38563;54.258;12.574;2023-08-01T04:07:11;15.90;99.90
13598;DHT22;38563;54.258;12.574;2023-08-01T04:09:38;16.00;99.90
13598;DHT22;38563;54.258;12.574;2023-08-01T04:12:05;16.00;99.90
13598;DHT22;38563;54.258;12.574;2023-08-01T04:14:34;16.00;99.90
13598;DHT22;38563;54.258;12.574;2023-08-01T04:17:00;16.00;99.90
13598;DHT22;38563;54.258;12.574;2023-08-01T04:19:27;16.10;99.90
13598;DHT22;38563;54.258;12.574;2023-08-01T04:21:54;16.10;99.90
13598;DHT22;38563;54.258;12.574;2023-08-01T04:24:20;16.10;99.90
13598;DHT22;38563;54.258;12.574;2023-08-01T04:26:50;16.20;99.90
13598;DHT22;38563;54.258;12.574;2023-08-01T04:29:17;16.20;99.90
13598;DHT22;38563;54.258;12.574;2023-08-01T04:31:45;16.20;99.90
13598;DHT22;38563;54.258;12.574;2023-08-01T04:34:12;16.30;99.90
13598;DHT22;38563;54.258;12.574;2023-08-01T04:36:38;16.30;99.90
13598;DHT22;38563;54.258;12.574;2023-08-01T04:39:05;16.30;99.90
13598;DHT22;38563;54.258;12.574;2023-08-01T04:41:32;16.30;99.90
13598;DHT22;38563;54.258;12.574;2023-08-01T04:43:58;16.40;99.90
13598;DHT22;38563;54.258;12.574;2023-08-01T04:46:25;16.40;99.90
13598;DHT22;38563;54.258;12.574;2023-08-01T04:48:53;16.40;99.90
13598;DHT22;38563;54.258;12.574;2023-08-01T04:51:20;16.50;99.90
13598;DHT22;38563;54.258;12.574;2023-08-01T04:53:46;16.50;99.90
13598;DHT22;38563;54.258;12.574;2023-08-01T04:56:13;16.50;99.90
13598;DHT22;38563;54.258;12.574;2023-08-01T04:58:40;16.50;99.90
13598;DHT22;38563;54.258;12.574;2023-08-01T05:01:07;16.60;99.90
13598;DHT22;38563;54.258;12.574;2023-08-01T05:03:34;16.60;99.90
13598;DHT22;38563;54.258;12.574;2023-08-01T05:06:02;16.70;99.90
13598;DHT22;38563;54.258;12.574;2023-08-01T05:08:28;16.70;99.90
13598;DHT22;38563;54.258;12.574;2023-08-01T05:10:55;16.70;99.90
13598;DHT22;38563;54.258;12.574;2023-08-01T05:13:22;16.80;99.90
13598;DHT22;38563;54.258;12.574;2023-08-01T05:15:48;16.80;99.90
13598;DHT22;38563;54.258;12.574;2023-08-01T05:18:16;16.80;99.90
13598;DHT22;38563;54.258;12.574;2023-08-01T05:20:43;16.90;99.90
13598;DHT22;38563;54.258;12.574;2023-08-01T05:23:11;16.80;99.90
13598;DHT22;38563;54.258;12.574;2023-08-01T05:25:37;16.80;99.90
13598;DHT22;38563;54.258;12.574;2023-08-01T05:28:04;16.80;99.90
13598;DHT22;38563;54.258;12.574;2023-08-01T05:30:31;16.80;99.90
13598;DHT22;38563;54.258;12.574;2023-08-01T05:32:57;16.80;99.90
13598;DHT22;38563;54.258;12.574;2023-08-01T05:35:24;16.90;99.90
13598;DHT22;38563;54.258;12.574;2023-08-01T05:37:51;16.90;99.90
13598;DHT22;38563;54.258;12.574;2023-08-01T05:40:19;16.90;99.90
13598;DHT22;38563;54.258;12.574;2023-08-01T05:42:45;16.90;99.90
13598;DHT22;38563;54.258;12.574;2023-08-01T05:45:12;16.90;99.90
13598;DHT22;38563;54.258;12.574;2023-08-01T05:47:39;17.00;99.90
13598;DHT22;38563;54.258;12.574;2023-08-01T05:50:06;17.00;99.90
13598;DHT22;38563;54.258;12.574;2023-08-01T05:52:33;17.00;99.90
13598;DHT22;38563;54.258;12.574;2023-08-01T05:55:00;17.10;99.90
13598;DHT22;38563;54.258;12.574;2023-08-01T05:57:29;17.00;99.90
13598;DHT22;38563;54.258;12.574;2023-08-01T05:59:56;17.00;99.90
13598;DHT22;38563;54.258;12.574;2023-08-01T06:02:22;17.00;99.90
13598;DHT22;38563;54.258;12.574;2023-08-01T06:04:49;17.10;99.90
13598;DHT22;38563;54.258;12.574;2023-08-01T06:07:16;17.10;99.90
13598;DHT22;38563;54.258;12.574;2023-08-01T06:09:48;17.20;99.90
13598;DHT22;38563;54.258;12.574;2023-08-01T06:12:16;17.20;99.90
13598;DHT22;38563;54.258;12.574;2023-08-01T06:14:44;17.20;99.90
13598;DHT22;38563;54.258;12.574;2023-08-01T06:17:11;17.20;99.90
13598;DHT22;38563;54.258;12.574;2023-08-01T06:19:37;17.30;99.90
13598;DHT22;38563;54.258;12.574;2023-08-01T06:22:05;17.40;99.90
13598;DHT22;38563;54.258;12.574;2023-08-01T06:24:31;17.40;99.90
13598;DHT22;38563;54.258;12.574;2023-08-01T06:26:58;17.40;99.90
13598;DHT22;38563;54.258;12.574;2023-08-01T06:29:25;17.40;99.90
13598;DHT22;38563;54.258;12.574;2023-08-01T06:31:53;17.40;99.90
13598;DHT22;38563;54.258;12.574;2023-08-01T06:34:20;17.40;99.90
13598;DHT22;38563;54.258;12.574;2023-08-01T06:36:46;17.40;99.90
13598;DHT22;38563;54.258;12.574;2023-08-01T06:39:13;17.50;99.90
13598;DHT22;38563;54.258;12.574;2023-08-01T06:41:40;17.50;99.90
13598;DHT22;38563;54.258;12.574;2023-08-01T06:44:07;17.60;99.90
13598;DHT22;38563;54.258;12.574;2023-08-01T06:46:33;17.70;99.90
13598;DHT22;38563;54.258;12.574;2023-08-01T06:49:02;17.70;99.90
13598;DHT22;38563;54.258;12.574;2023-08-01T06:51:28;17.70;99.90
13598;DHT22;38563;54.258;12.574;2023-08-01T06:53:55;17.70;99.90
13598;DHT22;38563;54.258;12.574;2023-08-01T06:56:22;17.70;99.90
13598;DHT22;38563;54.258;12.574;2023-08-01T06:58:49;17.80;99.90
13598;DHT22;38563;54.258;12.574;2023-08-01T07:01:15;17.70;99.90
13598;DHT22;38563;54.258;12.574;2023-08-01T07:03:42;17.70;99.90
13598;DHT22;38563;54.258;12.574;2023-08-01T07:06:10;17.70;99.90
13598;DHT22;38563;54.258;12.574;2023-08-01T07:08:37;17.70;99.90
13598;DHT22;38563;54.258;12.574;2023-08-01T07:11:03;17.70;99.90
13598;DHT22;38563;54.258;12.574;2023-08-01T07:13:30;17.80;99.90
13598;DHT22;38563;54.258;12.574;2023-08-01T07:15:57;17.90;99.90
13598;DHT22;38563;54.258;12.574;2023-08-01T07:18:24;18.10;99.90
13598;DHT22;38563;54.258;12.574;2023-08-01T07:20:59;18.20;99.90
13598;DHT22;38563;54.258;12.574;2023-08-01T07:23:27;18.40;99.90
13598;DHT22;38563;54.258;12.574;2023-08-01T07:25:54;18.40;99.90
13598;DHT22;38563;54.258;12.574;2023-08-01T07:28:21;18.50;99.90
13598;DHT22;38563;54.258;12.574;2023-08-01T07:30:47;18.60;99.90
13598;DHT22;38563;54.258;12.574;2023-08-01T07:33:14;18.50;99.90
13598;DHT22;38563;54.258;12.574;2023-08-01T07:35:41;18.50;99.90
13598;DHT22;38563;54.258;12.574;2023-08-01T07:38:08;18.50;99.90
13598;DHT22;38563;54.258;12.574;2023-08-01T07:40:37;18.50;99.90
13598;DHT22;38563;54.258;12.574;2023-08-01T07:43:04;18.50;99.90
13598;DHT22;38563;54.258;12.574;2023-08-01T07:45:33;18.50;99.90
13598;DHT22;38563;54.258;12.574;2023-08-01T07:48:00;18.50;99.90
13598;DHT22;38563;54.258;12.574;2023-08-01T07:50:26;18.70;99.90
13598;DHT22;38563;54.258;12.574;2023-08-01T07:52:53;18.70;99.90
13598;DHT22;38563;54.258;12.574;2023-08-01T07:55:20;18.70;99.90
13598;DHT22;38563;54.258;12.574;2023-08-01T07:57:48;18.80;99.90
13598;DHT22;38563;54.258;12.574;2023-08-01T08:00:15;18.80;99.90
13598;DHT22;38563;54.258;12.574;2023-08-01T08:02:42;18.70;99.90
13598;DHT22;38563;54.258;12.574;2023-08-01T08:05:10;18.90;99.90
13598;DHT22;38563;54.258;12.574;2023-08-01T08:07:37;19.00;99.90
13598;DHT22;38563;54.258;12.574;2023-08-01T08:10:04;19.00;99.90
13598;DHT22;38563;54.258;12.574;2023-08-01T08:12:31;19.00;99.90
13598;DHT22;38563;54.258;12.574;2023-08-01T08:14:59;19.10;99.90
13598;DHT22;38563;54.258;12.574;2023-08-01T08:17:26;19.20;99.90
13598;DHT22;38563;54.258;12.574;2023-08-01T08:19:52;19.20;99.90
13598;DHT22;38563;54.258;12.574;2023-08-01T08:22:19;19.40;99.90
13598;DHT22;38563;54.258;12.574;2023-08-01T08:24:46;19.50;99.90
13598;DHT22;38563;54.258;12.574;2023-08-01T08:27:13;19.40;99.90
13598;DHT22;38563;54.258;12.574;2023-08-01T08:37:47;19.80;99.90
13598;DHT22;38563;54.258;12.574;2023-08-01T08:40:13;19.80;99.90
13598;DHT22;38563;54.258;12.574;2023-08-01T08:42:40;19.70;99.90
13598;DHT22;38563;54.258;12.574;2023-08-01T08:45:07;19.60;99.90
13598;DHT22;38563;54.258;12.574;2023-08-01T08:47:36;19.50;99.90
13598;DHT22;38563;54.258;12.574;2023-08-01T08:50:05;19.40;99.90
13598;DHT22;38563;54.258;12.574;2023-08-01T08:52:32;19.20;99.90
13598;DHT22;38563;54.258;12.574;2023-08-01T08:55:01;19.00;99.90
13598;DHT22;38563;54.258;12.574;2023-08-01T08:57:29;18.90;99.90
13598;DHT22;38563;54.258;12.574;2023-08-01T08:59:56;18.70;99.90
13598;DHT22;38563;54.258;12.574;2023-08-01T09:02:23;18.50;99.90
13598;DHT22;38563;54.258;12.574;2023-08-01T09:04:51;18.10;99.90
13598;DHT22;38563;54.258;12.574;2023-08-01T09:07:20;17.70;99.90
13598;DHT22;38563;54.258;12.574;2023-08-01T09:09:49;17.40;99.90
13598;DHT22;38563;54.258;12.574;2023-08-01T09:12:17;17.10;99.90
13598;DHT22;38563;54.258;12.574;2023-08-01T09:14:45;16.90;99.90
13598;DHT22;38563;54.258;12.574;2023-08-01T09:17:12;16.90;99.90
13598;DHT22;38563;54.258;12.574;2023-08-01T09:19:41;17.00;99.90
13598;DHT22;38563;54.258;12.574;2023-08-01T09:22:11;16.90;99.90
13598;DHT22;38563;54.258;12.574;2023-08-01T09:24:38;16.90;99.90
13598;DHT22;38563;54.258;12.574;2023-08-01T09:27:06;17.00;99.90
13598;DHT22;38563;54.258;12.574;2023-08-01T09:29:35;17.00;99.90
13598;DHT22;38563;54.258;12.574;2023-08-01T09:32:12;17.00;99.90
13598;DHT22;38563;54.258;12.574;2023-08-01T09:34:40;17.00;99.90
13598;DHT22;38563;54.258;12.574;2023-08-01T09:37:07;16.90;99.90
13598;DHT22;38563;54.258;12.574;2023-08-01T09:39:33;16.80;99.90
13598;DHT22;38563;54.258;12.574;2023-08-01T09:42:01;16.50;99.90
13598;DHT22;38563;54.258;12.574;2023-08-01T09:44:29;16.50;99.90
13598;DHT22;38563;54.258;12.574;2023-08-01T09:46:58;16.60;99.90
13598;DHT22;38563;54.258;12.574;2023-08-01T09:49:27;16.90;99.90
13598;DHT22;38563;54.258;12.574;2023-08-01T09:51:54;17.30;99.90
13598;DHT22;38563;54.258;12.574;2023-08-01T09:54:21;17.70;99.90
13598;DHT22;38563;54.258;12.574;2023-08-01T09:56:48;17.90;99.90
13598;DHT22;38563;54.258;12.574;2023-08-01T09:59:19;18.20;99.90
13598;DHT22;38563;54.258;12.574;2023-08-01T10:01:47;18.40;99.90
13598;DHT22;38563;54.258;12.574;2023-08-01T10:04:18;18.70;99.90
13598;DHT22;38563;54.258;12.574;2023-08-01T10:06:47;18.80;99.90
13598;DHT22;38563;54.258;12.574;2023-08-01T10:09:16;19.00;99.90
13598;DHT22;38563;54.258;12.574;2023-08-01T10:11:44;19.00;99.90
13598;DHT22;38563;54.258;12.574;2023-08-01T10:14:11;18.90;99.90
13598;DHT22;38563;54.258;12.574;2023-08-01T10:16:38;18.90;99.90
13598;DHT22;38563;54.258;12.574;2023-08-01T10:19:06;19.00;99.90
13598;DHT22;38563;54.258;12.574;2023-08-01T10:21:35;19.00;99.90
13598;DHT22;38563;54.258;12.574;2023-08-01T10:24:03;19.00;99.90
13598;DHT22;38563;54.258;12.574;2023-08-01T10:26:32;19.20;99.90
13598;DHT22;38563;54.258;12.574;2023-08-01T10:28:58;19.40;99.90
13598;DHT22;38563;54.258;12.574;2023-08-01T10:31:26;19.50;99.90
13598;DHT22;38563;54.258;12.574;2023-08-01T10:34:04;19.60;99.90
13598;DHT22;38563;54.258;12.574;2023-08-01T10:36:31;19.60;99.90
13598;DHT22;38563;54.258;12.574;2023-08-01T10:39:00;19.70;99.90
13598;DHT22;38563;54.258;12.574;2023-08-01T10:41:28;19.60;99.90
13598;DHT22;38563;54.258;12.574;2023-08-01T10:44:07;19.90;99.90
13598;DHT22;38563;54.258;12.574;2023-08-01T10:46:47;20.10;99.90
13598;DHT22;38563;54.258;12.574;2023-08-01T10:49:15;20.10;99.90
13598;DHT22;38563;54.258;12.574;2023-08-01T10:51:42;20.10;99.90
13598;DHT22;38563;54.258;12.574;2023-08-01T10:54:20;20.10;99.90
13598;DHT22;38563;54.258;12.574;2023-08-01T10:56:49;20.00;99.90
13598;DHT22;38563;54.258;12.574;2023-08-01T10:59:16;19.90;99.90
13598;DHT22;38563;54.258;12.574;2023-08-01T11:01:44;19.80;99.90
13598;DHT22;38563;54.258;12.574;2023-08-01T11:04:15;19.80;99.90
13598;DHT22;38563;54.258;12.574;2023-08-01T11:06:44;19.60;99.90
13598;DHT22;38563;54.258;12.574;2023-08-01T11:09:20;19.30;99.90
13598;DHT22;38563;54.258;12.574;2023-08-01T11:11:49;18.90;99.90
13598;DHT22;38563;54.258;12.574;2023-08-01T11:14:16;18.70;99.90
13598;DHT22;38563;54.258;12.574;2023-08-01T11:16:45;18.40;99.90
13598;DHT22;38563;54.258;12.574;2023-08-01T11:19:20;18.40;99.90
13598;DHT22;38563;54.258;12.574;2023-08-01T11:21:47;18.50;99.90
13598;DHT22;38563;54.258;12.574;2023-08-01T11:24:14;18.80;99.90
13598;DHT22;38563;54.258;12.574;2023-08-01T11:26:47;19.20;99.90
13598;DHT22;38563;54.258;12.574;2023-08-01T11:29:15;19.70;99.90
13598;DHT22;38563;54.258;12.574;2023-08-01T11:31:52;19.90;99.90
13598;DHT22;38563;54.258;12.574;2023-08-01T11:34:19;19.90;99.90
13598;DHT22;38563;54.258;12.574;2023-08-01T11:36:46;19.70;99.90
13598;DHT22;38563;54.258;12.574;2023-08-01T11:39:13;19.40;99.90
13598;DHT22;38563;54.258;12.574;2023-08-01T11:41:41;19.10;99.90
13598;DHT22;38563;54.258;12.574;2023-08-01T11:44:09;18.70;99.90
13598;DHT22;38563;54.258;12.574;2023-08-01T11:46:38;18.60;99.90
13598;DHT22;38563;54.258;12.574;2023-08-01T11:49:07;18.90;99.90
13598;DHT22;38563;54.258;12.574;2023-08-01T11:51:38;19.10;99.90
13598;DHT22;38563;54.258;12.574;2023-08-01T11:54:05;19.40;99.90
13598;DHT22;38563;54.258;12.574;2023-08-01T11:56:33;19.70;99.90
13598;DHT22;38563;54.258;12.574;2023-08-01T11:59:09;19.80;99.90
13598;DHT22;38563;54.258;12.574;2023-08-01T12:01:39;19.60;99.90
13598;DHT22;38563;54.258;12.574;2023-08-01T12:04:06;19.40;99.90
13598;DHT22;38563;54.258;12.574;2023-08-01T12:06:33;19.50;99.90
13598;DHT22;38563;54.258;12.574;2023-08-01T12:09:08;19.60;99.90
13598;DHT22;38563;54.258;12.574;2023-08-01T12:11:35;20.10;99.90
13598;DHT22;38563;54.258;12.574;2023-08-01T12:14:03;20.40;99.90
13598;DHT22;38563;54.258;12.574;2023-08-01T12:16:31;20.70;99.90
13598;DHT22;38563;54.258;12.574;2023-08-01T12:18:58;20.80;99.90
13598;DHT22;38563;54.258;12.574;2023-08-01T12:21:25;20.60;99.90
13598;DHT22;38563;54.258;12.574;2023-08-01T12:23:51;20.50;99.90
13598;DHT22;38563;54.258;12.574;2023-08-01T12:26:18;20.50;99.90
13598;DHT22;38563;54.258;12.574;2023-08-01T12:28:45;20.40;99.90
13598;DHT22;38563;54.258;12.574;2023-08-01T12:31:15;20.30;99.90
13598;DHT22;38563;54.258;12.574;2023-08-01T12:33:44;20.10;99.90
13598;DHT22;38563;54.258;12.574;2023-08-01T12:36:11;20.00;99.90
13598;DHT22;38563;54.258;12.574;2023-08-01T12:38:38;20.20;99.90
13598;DHT22;38563;54.258;12.574;2023-08-01T12:41:05;20.50;99.90
13598;DHT22;38563;54.258;12.574;2023-08-01T12:43:32;20.90;99.90
13598;DHT22;38563;54.258;12.574;2023-08-01T12:45:59;20.80;99.90
13598;DHT22;38563;54.258;12.574;2023-08-01T12:48:27;20.50;99.90
13598;DHT22;38563;54.258;12.574;2023-08-01T12:50:55;20.20;99.90
13598;DHT22;38563;54.258;12.574;2023-08-01T12:53:22;20.10;99.90
13598;DHT22;38563;54.258;12.574;2023-08-01T12:55:52;20.40;99.90
13598;DHT22;38563;54.258;12.574;2023-08-01T12:58:19;20.70;99.90
13598;DHT22;38563;54.258;12.574;2023-08-01T13:00:46;20.70;99.90
13598;DHT22;38563;54.258;12.574;2023-08-01T13:03:13;20.40;99.90
13598;DHT22;38563;54.258;12.574;2023-08-01T13:05:40;20.20;99.90
13598;DHT22;38563;54.258;12.574;2023-08-01T13:08:09;20.00;99.90
13598;DHT22;38563;54.258;12.574;2023-08-01T13:10:37;19.90;99.90
13598;DHT22;38563;54.258;12.574;2023-08-01T13:13:04;19.90;99.90
13598;DHT22;38563;54.258;12.574;2023-08-01T13:15:31;19.80;99.90
13598;DHT22;38563;54.258;12.574;2023-08-01T13:17:58;19.70;99.90
13598;DHT22;38563;54.258;12.574;2023-08-01T13:20:24;19.70;99.90
13598;DHT22;38563;54.258;12.574;2023-08-01T13:22:51;19.60;99.90
13598;DHT22;38563;54.258;12.574;2023-08-01T13:25:19;19.40;99.90
13598;DHT22;38563;54.258;12.574;2023-08-01T13:27:46;19.30;99.90
13598;DHT22;38563;54.258;12.574;2023-08-01T13:30:13;19.10;99.90
13598;DHT22;38563;54.258;12.574;2023-08-01T13:32:43;18.90;99.90
13598;DHT22;38563;54.258;12.574;2023-08-01T13:35:10;18.60;99.90
13598;DHT22;38563;54.258;12.574;2023-08-01T13:37:36;18.20;99.90
13598;DHT22;38563;54.258;12.574;2023-08-01T13:40:04;17.60;99.90
13598;DHT22;38563;54.258;12.574;2023-08-01T13:42:32;17.20;99.90
13598;DHT22;38563;54.258;12.574;2023-08-01T13:44:59;17.00;99.90
13598;DHT22;38563;54.258;12.574;2023-08-01T13:47:26;17.00;99.90
13598;DHT22;38563;54.258;12.574;2023-08-01T13:49:53;17.00;99.90
13598;DHT22;38563;54.258;12.574;2023-08-01T13:52:20;16.90;99.90
13598;DHT22;38563;54.258;12.574;2023-08-01T13:54:46;16.80;99.90
13598;DHT22;38563;54.258;12.574;2023-08-01T13:57:13;16.70;99.90
13598;DHT22;38563;54.258;12.574;2023-08-01T13:59:41;16.60;99.90
13598;DHT22;38563;54.258;12.574;2023-08-01T14:02:08;16.50;99.90
13598;DHT22;38563;54.258;12.574;2023-08-01T14:04:35;16.40;99.90
13598;DHT22;38563;54.258;12.574;2023-08-01T14:07:02;16.30;99.90
13598;DHT22;38563;54.258;12.574;2023-08-01T14:09:29;16.20;99.90
13598;DHT22;38563;54.258;12.574;2023-08-01T14:11:57;16.30;99.90
13598;DHT22;38563;54.258;12.574;2023-08-01T14:14:24;16.40;99.90
13598;DHT22;38563;54.258;12.574;2023-08-01T14:16:52;16.40;99.90
13598;DHT22;38563;54.258;12.574;2023-08-01T14:19:20;16.60;99.90
13598;DHT22;38563;54.258;12.574;2023-08-01T14:21:47;16.80;99.90
13598;DHT22;38563;54.258;12.574;2023-08-01T14:24:13;17.00;99.90
13598;DHT22;38563;54.258;12.574;2023-08-01T14:26:40;17.10;99.90
13598;DHT22;38563;54.258;12.574;2023-08-01T14:42:38;17.60;99.90
13598;DHT22;38563;54.258;12.574;2023-08-01T14:45:05;17.60;99.90
13598;DHT22;38563;54.258;12.574;2023-08-01T14:47:32;17.60;99.90
13598;DHT22;38563;54.258;12.574;2023-08-01T14:50:00;17.60;99.90
13598;DHT22;38563;54.258;12.574;2023-08-01T14:52:26;17.80;99.90
13598;DHT22;38563;54.258;12.574;2023-08-01T14:54:53;18.20;99.90
13598;DHT22;38563;54.258;12.574;2023-08-01T14:57:20;18.70;99.90
13598;DHT22;38563;54.258;12.574;2023-08-01T14:59:48;19.10;99.90
13598;DHT22;38563;54.258;12.574;2023-08-01T15:02:15;19.40;99.90
13598;DHT22;38563;54.258;12.574;2023-08-01T15:04:42;19.70;99.90
13598;DHT22;38563;54.258;12.574;2023-08-01T15:07:08;19.70;99.90
13598;DHT22;38563;54.258;12.574;2023-08-01T15:09:35;19.80;99.90
13598;DHT22;38563;54.258;12.574;2023-08-01T15:12:02;19.70;99.90
13598;DHT22;38563;54.258;12.574;2023-08-01T15:14:29;19.80;99.90
13598;DHT22;38563;54.258;12.574;2023-08-01T15:16:57;20.30;99.90
13598;DHT22;38563;54.258;12.574;2023-08-01T15:19:24;20.80;99.90
13598;DHT22;38563;54.258;12.574;2023-08-01T15:21:51;21.00;99.90
13598;DHT22;38563;54.258;12.574;2023-08-01T15:24:17;20.50;99.90
13598;DHT22;38563;54.258;12.574;2023-08-01T15:26:44;20.20;99.90
13598;DHT22;38563;54.258;12.574;2023-08-01T15:29:11;19.90;99.90
13598;DHT22;38563;54.258;12.574;2023-08-01T15:31:37;19.70;99.90
13598;DHT22;38563;54.258;12.574;2023-08-01T15:34:06;19.40;99.90
13598;DHT22;38563;54.258;12.574;2023-08-01T15:36:34;19.30;99.90
13598;DHT22;38563;54.258;12.574;2023-08-01T15:39:01;19.30;99.90